Flight Track Log - Related Links

Times and Time Zones

All times are in EST time to prevent confusion due to time zone crossing. See the JAL8101 flight status page for this flight to view local times or setup timezone preferences in your user account.

Time Position Orientation Groundspeed Altitude Reporting Facility
EST Latitude Longitude Course Direction KTS MPH feet Rate Location/Type
Fri 05:52:20 PM 47.8872 -122.2869 266° West 166 191 1,500  Level Seattle Center
Fri 05:53:39 PM 47.8336 -122.3300 325° Northwest 244 281 4,200 2,639 Climbing Seattle Center
Fri 05:55:06 PM 47.8030 -122.4710 251° West 259 298 8,800 3,077 Climbing FlightAware ADS-B
Fri 05:55:36 PM 47.7870 -122.5100 239° Southwest 257 296 10,200 1,971 Climbing FlightAware ADS-B
Fri 05:56:16 PM 47.7520 -122.5720 230° Southwest 298 343 11,100 1,875 Climbing FlightAware ADS-B
Fri 05:56:56 PM 47.7200 -122.6480 238° Southwest 326 375 12,700 2,182 Climbing FlightAware ADS-B
Fri 05:57:11 PM 47.7190 -122.6710 266° West 334 384 13,100 2,267 Climbing FlightAware ADS-B
Fri 05:57:41 PM 47.7360 -122.7380 291° West 355 409 14,400 1,971 Climbing FlightAware ADS-B
Fri 05:58:21 PM 47.7950 -122.8000 325° Northwest 377 434 15,400 2,047 Climbing FlightAware ADS-B
Fri 05:59:06 PM 47.8640 -122.8630 329° Northwest 382 440 17,300 2,329 Climbing FlightAware ADS-B
Fri 05:59:46 PM 47.9070 -122.9320 313° West 380 437 18,700 2,175 Climbing FlightAware ADS-B
Fri 06:00:26 PM 47.9550 -123.0190 310° West 385 443 20,200 2,122 Climbing FlightAware ADS-B
Fri 06:01:08 PM 48.0010 -123.1040 309° West 394 453 21,600 1,875 Climbing FlightAware ADS-B
Fri 06:01:46 PM 48.0450 -123.1830 310° West 400 460 22,700 1,663 Climbing FlightAware ADS-B
Fri 06:02:31 PM 48.0900 -123.2670 309° West 406 467 23,900 1,725 Climbing FlightAware ADS-B
Fri 06:03:06 PM 48.1420 -123.3640 309° West 416 479 25,000 1,650 Climbing FlightAware ADS-B
Fri 06:03:51 PM 48.1940 -123.4600 309° West 423 487 26,100 1,389 Climbing FlightAware ADS-B
Fri 06:04:41 PM 48.2590 -123.5790 309° West 430 495 27,200 1,341 Climbing FlightAware ADS-B
Fri 06:05:16 PM 48.3050 -123.6650 309° West 436 502 28,000 1,200 Climbing FlightAware ADS-B
Fri 06:06:01 PM 48.3590 -123.7660 309° West 446 513 28,800 1,129 Climbing FlightAware ADS-B
Fri 06:06:41 PM 48.4130 -123.8670 309° West 451 519 29,600 1,200 Climbing FlightAware ADS-B
Fri 06:07:26 PM 48.4740 -123.9830 308° West 457 526 30,500 1,067 Climbing FlightAware ADS-B
Fri 06:08:11 PM 48.5290 -124.0860 309° West 464 534 31,200 1,059 Climbing FlightAware ADS-B
Fri 06:08:51 PM 48.5840 -124.1910 308° West 467 537 32,000 1,200 Climbing FlightAware ADS-B
Fri 06:09:31 PM 48.6480 -124.3120 309° West 472 543 32,800 1,271 Climbing FlightAware ADS-B
Fri 06:10:16 PM 48.7090 -124.4310 308° West 474 545 33,800 1,271 Climbing FlightAware ADS-B
Fri 06:10:56 PM 48.7640 -124.5360 308° West 479 551 34,600 1,125 Climbing FlightAware ADS-B
Fri 06:11:36 PM 48.8210 -124.6450 308° West 491 565 35,300 918 Climbing FlightAware ADS-B
Fri 06:12:21 PM 48.8830 -124.7670 308° West 498 573 35,900 847 Climbing FlightAware ADS-B
Fri 06:13:01 PM 48.9380 -124.8740 308° West 504 580 36,500 1,200 Climbing FlightAware ADS-B
Fri 06:13:46 PM 49.0040 -125.0030 308° West 500 575 37,600 1,059 Climbing FlightAware ADS-B
Fri 06:14:26 PM 49.0580 -125.1080 308° West 497 572 38,000 300 Climbing FlightAware ADS-B
Fri 06:15:06 PM 49.1170 -125.2250 308° West 498 573 38,000  Level FlightAware ADS-B
Fri 06:15:51 PM 49.1790 -125.3490 307° West 501 577 38,000  Level FlightAware ADS-B
Fri 06:16:26 PM 49.2290 -125.4480 308° West 502 578 38,000  Level FlightAware ADS-B
Fri 06:17:11 PM 49.2850 -125.5610 307° West 502 578 38,000  Level FlightAware ADS-B
Fri 06:17:56 PM 49.3370 -125.6640 308° West 501 577 38,000  Level FlightAware ADS-B
Fri 06:18:36 PM 49.3880 -125.7670 307° West 503 579 38,000  Level FlightAware ADS-B
Fri 06:19:21 PM 49.4470 -125.8880 307° West 503 579 38,000  Level FlightAware ADS-B
Fri 06:19:56 PM 49.5190 -126.0320 308° West 504 580 38,000  Level FlightAware ADS-B
Fri 06:20:36 PM 49.5640 -126.1240 307° West 504 580 38,000  Level FlightAware ADS-B
Fri 06:21:26 PM 49.6410 -126.2830 307° West 502 578 38,000 267 Level FlightAware ADS-B
Fri 06:22:06 PM 49.6920 -126.3870 307° West 502 578 38,400 847 Climbing FlightAware ADS-B
Fri 06:22:51 PM 49.7590 -126.5260 307° West 498 573 39,200 900 Climbing FlightAware ADS-B
Fri 06:23:26 PM 49.8070 -126.6270 306° West 500 575 39,600 640 Climbing FlightAware ADS-B
Fri 06:24:06 PM 49.8570 -126.7310 307° West 499 574 40,000 240 Climbing FlightAware ADS-B
Fri 06:25:06 PM 49.9250 -126.8750 306° West 497 572 40,000  Level FlightAware ADS-B
Fri 06:25:51 PM 49.9830 -126.9980 306° West 497 572 40,000  Level FlightAware ADS-B
Fri 06:26:26 PM 50.0450 -127.1270 307° West 495 570 40,000  Level FlightAware ADS-B
Fri 06:27:11 PM 50.1100 -127.2660 306° West 497 572 40,000  Level FlightAware ADS-B
Fri 06:27:56 PM 50.1560 -127.3650 306° West 497 572 40,000  Level FlightAware ADS-B
Fri 06:28:36 PM 50.2020 -127.4630 306° West 497 572 40,000  Level FlightAware ADS-B
Fri 06:29:21 PM 50.2590 -127.5870 306° West 497 572 40,000  Level FlightAware ADS-B
Fri 06:30:01 PM 50.3050 -127.6860 306° West 497 572 40,000  Level FlightAware ADS-B
Fri 06:30:46 PM 50.3510 -127.7850 306° West 497 572 40,000  Level FlightAware ADS-B
Fri 06:31:31 PM 50.4080 -127.9090 306° West 497 572 40,000  Level FlightAware ADS-B
Fri 06:32:31 PM 50.5500 -128.2167 306° West 500 575 40,000  Level Vancouver Center
Fri 06:33:31 PM 50.6500 -128.3833 313° West 500 575 40,000  Level Vancouver Center
Fri 06:34:31 PM 50.7333 -128.5500 308° West 500 575 40,000  Level Vancouver Center
Fri 06:35:31 PM 50.8167 -128.7167 308° West 500 575 40,000  Level Vancouver Center
Fri 06:36:31 PM 50.9000 -128.9167 304° West 500 575 40,000  Level Vancouver Center
Fri 06:37:31 PM 50.9833 -129.0833 308° West 500 575 40,000  Level Vancouver Center
Fri 06:38:31 PM 51.0833 -129.2500 314° West 500 575 40,000  Level Vancouver Center
Fri 06:39:31 PM 51.1500 -129.4500 298° West 500 575 40,000  Level Vancouver Center
Fri 06:40:31 PM 51.2500 -129.5833 320° Northwest 500 575 40,000  Level Vancouver Center
Fri 06:41:31 PM 51.3333 -129.7833 304° West 500 575 40,000  Level Vancouver Center
Fri 06:42:31 PM 51.4167 -129.9667 306° West 500 575 40,000  Level Vancouver Center
Fri 06:43:31 PM 51.4833 -130.1333 303° West 500 575 40,000  Level Vancouver Center
Fri 06:44:31 PM 51.5833 -130.3000 314° West 500 575 40,000  Level Vancouver Center
Fri 06:45:31 PM 51.6667 -130.4833 306° West 500 575 40,000  Level Vancouver Center
Fri 06:46:31 PM 51.7500 -130.6833 304° West 500 575 40,000  Level Vancouver Center
Fri 06:47:31 PM 51.8333 -130.8500 309° West 500 575 40,000  Level Vancouver Center
Fri 06:48:31 PM 51.9000 -131.0333 301° West 500 575 40,000  Level Vancouver Center
Fri 06:49:31 PM 52.0000 -131.2167 312° West 500 575 40,000  Level Vancouver Center
Fri 06:50:31 PM 52.0833 -131.3833 309° West 500 575 40,000  Level Vancouver Center
Fri 06:51:31 PM 52.1667 -131.5667 307° West 490 564 40,000  Level Vancouver Center
Fri 06:52:31 PM 52.2333 -131.7333 303° West 500 575 40,000  Level Vancouver Center
Fri 06:53:31 PM 52.3167 -131.9500 302° West 490 564 40,000  Level Vancouver Center
Fri 06:54:31 PM 52.3833 -132.1000 306° West 490 564 40,000  Level Vancouver Center
Fri 06:55:31 PM 52.4833 -132.3000 309° West 490 564 40,000  Level Vancouver Center
Fri 06:56:31 PM 52.5500 -132.4833 301° West 490 564 40,000  Level Vancouver Center
Fri 06:57:31 PM 52.6333 -132.6667 307° West 490 564 40,000  Level Vancouver Center
Fri 06:58:31 PM 52.7000 -132.8500 301° West 500 575 40,000  Level Vancouver Center
Fri 06:59:31 PM 52.8000 -133.0333 312° West 500 575 40,000  Level Vancouver Center
Fri 07:00:31 PM 52.8833 -133.2167 307° West 500 575 40,000  Level Vancouver Center
Fri 07:01:31 PM 52.9500 -133.4333 297° West 500 575 40,000  Level Vancouver Center
Fri 07:02:31 PM 53.0333 -133.6167 307° West 500 575 40,000  Level Vancouver Center
Fri 07:03:31 PM 53.1000 -133.8000 301° West 500 575 40,000  Level Vancouver Center
Fri 07:04:31 PM 53.1833 -133.9833 307° West 500 575 40,000  Level Vancouver Center
Fri 07:05:31 PM 53.2500 -134.1667 301° West 500 575 40,000  Level Vancouver Center
Fri 07:06:31 PM 53.3333 -134.3667 305° West 500 575 40,000  Level Vancouver Center
Fri 07:07:31 PM 53.4000 -134.5500 301° West 500 575 40,000  Level Vancouver Center
Fri 07:08:31 PM 53.4833 -134.7667 303° West 500 575 40,000  Level Vancouver Center
Fri 07:09:31 PM 53.5500 -134.9500 302° West 490 564 40,000  Level Vancouver Center
Fri 07:10:31 PM 53.6333 -135.1500 305° West 500 575 40,000  Level Vancouver Center
Fri 07:11:31 PM 53.7000 -135.3333 302° West 490 564 40,000  Level Vancouver Center
Fri 07:12:31 PM 53.7833 -135.5333 305° West 500 575 40,000  Level Vancouver Center
Fri 07:12:48 PM 53.8167 -135.5167 16° North 500 575 40,000  Level Anchorage Center
Fri 07:13:31 PM 53.8500 -135.7167 286° West 490 564 40,000  Level Vancouver Center
Fri 07:13:48 PM 53.8833 -135.7167 360° North 490 564 40,000  Level Anchorage Center
Fri 07:14:48 PM 53.9667 -135.9000 308° West 480 552 40,000  Level Anchorage Center
Fri 07:15:49 PM 54.0333 -136.1167 298° West 490 564 40,000  Level Anchorage Center
Fri 07:16:31 PM 54.0833 -136.3333 292° West 490 564 40,000  Level Vancouver Center
Fri 07:17:31 PM 54.1167 -136.5167 287° West 490 564 40,000  Level Vancouver Center
Fri 07:17:49 PM 54.1667 -136.5167 360° North 490 564 40,000  Level Anchorage Center
Fri 07:18:31 PM 54.1833 -136.7000 279° West 490 564 40,000  Level Vancouver Center
Fri 07:19:31 PM 54.2500 -136.9000 300° West 490 564 40,000  Level Vancouver Center
Fri 07:20:31 PM 54.3167 -137.1167 298° West 490 564 40,000  Level Vancouver Center
Fri 07:21:31 PM 54.4000 -137.3167 306° West 490 564 40,000  Level Vancouver Center
Fri 07:21:51 PM 54.4000 -137.3167 306° West 480 552 40,000  Level Anchorage Center
Fri 07:22:31 PM 54.4333 -137.5333 285° West 490 564 40,000  Level Vancouver Center
Fri 07:23:31 PM 54.5000 -137.7000 305° West 500 575 40,000  Level Vancouver Center
Fri 07:24:31 PM 54.5667 -137.9333 296° West 500 575 40,000  Level Vancouver Center
Fri 07:25:31 PM 54.6167 -138.1333 293° West 490 564 40,000  Level Vancouver Center
Fri 07:25:52 PM 54.6500 -138.1500 344° North 490 564 40,000  Level Anchorage Center
Fri 07:26:52 PM 54.7167 -138.3500 300° West 480 552 40,000  Level Anchorage Center
Fri 07:27:31 PM 54.7333 -138.5500 278° West 490 564 40,000  Level Vancouver Center
Fri 07:28:31 PM 54.8167 -138.7500 306° West 490 564 40,000  Level Vancouver Center
Fri 07:28:53 PM 54.8333 -138.7667 330° Northwest 480 552 40,000  Level Anchorage Center
Fri 07:29:53 PM 54.9000 -138.9833 298° West 480 552 40,000  Level Anchorage Center
Fri 07:30:54 PM 54.9667 -139.1833 300° West 480 552 40,000  Level Anchorage Center
Fri 07:31:54 PM 55.0167 -139.4000 292° West 480 552 40,000  Level Anchorage Center
Fri 07:32:54 PM 55.0833 -139.6000 300° West 480 552 40,000  Level Anchorage Center
Fri 07:33:31 PM 55.1167 -139.8167 285° West 480 552 40,000  Level Vancouver Center
Fri 07:33:55 PM 55.1333 -139.8167 360° North 480 552 40,000  Level Anchorage Center
Fri 07:34:55 PM 55.1833 -140.0167 294° West 470 541 40,000  Level Anchorage Center
Fri 07:35:55 PM 55.2500 -140.2333 298° West 470 541 40,000  Level Anchorage Center
Fri 07:36:56 PM 55.3000 -140.4333 294° West 470 541 40,000  Level Anchorage Center
Fri 07:37:56 PM 55.3667 -140.6500 299° West 490 564 40,000  Level Anchorage Center
Fri 07:38:56 PM 55.4167 -140.8500 294° West 470 541 40,000  Level Anchorage Center
Fri 07:39:56 PM 55.4667 -141.0667 292° West 470 541 40,000  Level Anchorage Center
Fri 07:40:57 PM 55.5333 -141.2833 299° West 470 541 40,000  Level Anchorage Center
Fri 07:41:57 PM 55.5833 -141.5000 292° West 480 552 40,000  Level Anchorage Center
Fri 07:42:57 PM 55.6333 -141.7167 292° West 480 552 40,000  Level Anchorage Center
Fri 07:43:58 PM 55.7000 -141.9333 299° West 470 541 40,000  Level Anchorage Center
Fri 07:44:58 PM 55.7500 -142.1500 292° West 470 541 40,000  Level Anchorage Center
Fri 07:45:58 PM 55.8000 -142.3667 292° West 480 552 40,000  Level Anchorage Center
Fri 07:46:59 PM 55.8500 -142.5833 292° West 480 552 40,000  Level Anchorage Center
Fri 07:47:59 PM 55.9167 -142.8000 299° West 480 552 40,000  Level Anchorage Center
Fri 07:49:00 PM 55.9667 -143.0500 290° West 470 541 40,000  Level Anchorage Center
Fri 07:50:00 PM 56.0167 -143.2833 291° West 490 564 40,000  Level Anchorage Center
Fri 07:51:00 PM 56.0667 -143.5000 293° West 480 552 40,000  Level Anchorage Center
Fri 07:52:01 PM 56.1167 -143.7167 293° West 480 552 40,000  Level Anchorage Center
Fri 07:53:01 PM 56.1667 -143.9500 291° West 480 552 40,000  Level Anchorage Center
Fri 07:54:01 PM 56.2333 -144.1667 299° West 480 552 40,000  Level Anchorage Center
Fri 07:55:02 PM 56.2833 -144.4000 291° West 490 564 40,000  Level Anchorage Center
Fri 07:56:02 PM 56.3333 -144.6333 291° West 490 564 40,000  Level Anchorage Center
Fri 07:57:02 PM 56.3833 -144.8667 291° West 500 575 40,000  Level Anchorage Center
Fri 07:58:03 PM 56.4167 -145.0500 288° West 500 575 40,000  Level Anchorage Center
Fri 07:59:03 PM 56.4833 -145.3333 293° West 500 575 40,000  Level Anchorage Center
Fri 08:00:03 PM 56.5333 -145.5833 290° West 500 575 40,000  Level Anchorage Center
Fri 08:01:04 PM 56.5833 -145.8167 291° West 490 564 40,000  Level Anchorage Center
Fri 08:02:04 PM 56.6333 -146.0500 291° West 490 564 40,000  Level Anchorage Center
Fri 08:03:04 PM 56.6833 -146.2833 291° West 490 564 40,000  Level Anchorage Center
Fri 08:04:05 PM 56.7333 -146.5167 291° West 490 564 40,000  Level Anchorage Center
Fri 08:05:05 PM 56.7667 -146.7500 285° West 490 564 40,000  Level Anchorage Center
Fri 08:06:05 PM 56.8167 -146.9833 291° West 490 564 40,000  Level Anchorage Center
Fri 08:07:06 PM 56.8667 -147.2167 291° West 480 552 40,000  Level Anchorage Center
Fri 08:08:06 PM 56.9167 -147.4500 292° West 480 552 40,000  Level Anchorage Center
Fri 08:09:06 PM 56.9500 -147.7000 284° West 490 564 40,000  Level Anchorage Center
Fri 08:10:06 PM 57.0000 -147.9333 292° West 490 564 40,000  Level Anchorage Center
Fri 08:11:07 PM 57.0500 -148.1833 290° West 490 564 40,000  Level Anchorage Center
Fri 08:12:07 PM 57.1000 -148.4167 292° West 500 575 40,000  Level Anchorage Center
Fri 08:13:07 PM 57.1333 -148.6667 284° West 500 575 40,000  Level Anchorage Center
Fri 08:14:08 PM 57.1833 -148.9167 290° West 500 575 40,000  Level Anchorage Center
Fri 08:15:08 PM 57.2167 -149.1500 285° West 490 564 40,000  Level Anchorage Center
Fri 08:16:08 PM 57.2500 -149.3500 287° West 490 564 40,000  Level Anchorage Center
Fri 08:17:09 PM 57.3000 -149.6333 288° West 490 564 40,000  Level Anchorage Center
Fri 08:18:09 PM 57.3500 -149.8833 290° West 490 564 40,000  Level Anchorage Center
Fri 08:19:10 PM 57.3833 -150.1333 284° West 490 564 40,000  Level Anchorage Center
Fri 08:20:10 PM 57.4333 -150.3667 292° West 480 552 40,000  Level Anchorage Center
Fri 08:21:10 PM 57.4500 -150.6333 277° West 510 587 40,000  Level Anchorage Center
Fri 08:22:10 PM 57.4500 -150.8833 270° West 490 564 40,000  Level Anchorage Center
Fri 08:23:11 PM 57.4500 -151.1333 270° West 490 564 40,000  Level Anchorage Center
Fri 08:24:11 PM 57.4500 -151.3833 270° West 500 575 40,000  Level Anchorage Center
Fri 08:25:12 PM 57.4333 -151.6500 263° West 500 575 40,000  Level Anchorage Center
Fri 08:26:12 PM 57.4333 -151.9167 270° West 500 575 40,000  Level Anchorage Center
Fri 08:27:12 PM 57.4167 -152.1833 263° West 500 575 40,000  Level Anchorage Center
Fri 08:28:12 PM 57.4167 -152.4333 270° West 490 564 40,000  Level Anchorage Center
Fri 08:29:13 PM 57.4167 -152.6833 270° West 490 564 40,000  Level Anchorage Center
Fri 08:30:13 PM 57.4000 -152.9333 263° West 480 552 40,000  Level Anchorage Center
Fri 08:31:13 PM 57.4000 -153.2000 270° West 490 564 40,000  Level Anchorage Center
Fri 08:32:14 PM 57.3833 -153.4500 263° West 490 564 40,000  Level Anchorage Center
Fri 08:33:14 PM 57.3833 -153.7000 270° West 480 552 40,000  Level Anchorage Center
Fri 08:34:14 PM 57.3667 -153.9500 263° West 490 564 40,000  Level Anchorage Center
Fri 08:35:14 PM 57.3667 -154.2000 270° West 480 552 40,000  Level Anchorage Center
Fri 08:36:15 PM 57.3500 -154.4667 264° West 500 575 40,000  Level Anchorage Center
Fri 08:37:15 PM 57.3333 -154.7167 263° West 490 564 40,000  Level Anchorage Center
Fri 08:38:16 PM 57.3333 -154.9667 270° West 480 552 40,000  Level Anchorage Center
Fri 08:39:16 PM 57.3167 -155.2167 263° West 490 564 40,000  Level Anchorage Center
Fri 08:40:16 PM 57.3000 -155.4833 264° West 480 552 40,000  Level Anchorage Center
Fri 08:41:17 PM 57.2833 -155.7333 263° West 480 552 40,000  Level Anchorage Center
Fri 08:42:17 PM 57.2833 -155.9667 270° West 470 541 40,000  Level Anchorage Center
Fri 08:43:17 PM 57.2667 -156.2167 263° West 470 541 40,000  Level Anchorage Center
Fri 08:44:18 PM 57.2500 -156.4667 263° West 470 541 40,000  Level Anchorage Center
Fri 08:45:18 PM 57.2333 -156.7000 263° West 480 552 40,000  Level Anchorage Center
Fri 08:46:19 PM 57.2167 -156.9500 263° West 470 541 40,000  Level Anchorage Center
Fri 08:47:19 PM 57.2000 -157.2000 263° West 470 541 40,000  Level Anchorage Center
Fri 08:48:19 PM 57.1833 -157.4333 263° West 470 541 40,000  Level Anchorage Center
Fri 08:49:20 PM 57.1667 -157.6833 263° West 470 541 40,000  Level Anchorage Center
Fri 08:50:20 PM 57.1500 -157.9167 263° West 470 541 40,000  Level Anchorage Center
Fri 08:51:20 PM 57.1333 -158.1667 263° West 470 541 40,000  Level Anchorage Center
Fri 08:52:21 PM 57.1167 -158.4000 263° West 470 541 40,000  Level Anchorage Center
Fri 08:53:21 PM 57.1000 -158.6333 263° West 460 529 40,000  Level Anchorage Center
Fri 08:54:21 PM 57.0833 -158.8833 263° West 470 541 40,000  Level Anchorage Center
Fri 08:55:22 PM 57.0667 -159.1167 263° West 460 529 40,000  Level Anchorage Center
Fri 08:56:21 PM 57.0333 -159.3667 256° West 470 541 40,000  Level Anchorage Center
Fri 08:57:22 PM 57.0167 -159.6167 263° West 460 529 40,000  Level Anchorage Center
Fri 08:58:22 PM 57.0000 -159.8667 263° West 460 529 40,000  Level Anchorage Center
Fri 08:59:23 PM 57.0000 -160.1000 270° West 470 541 40,000  Level Anchorage Center
Fri 09:00:23 PM 57.0333 -160.3167 286° West 460 529 40,000  Level Anchorage Center
Fri 09:01:23 PM 57.0667 -160.5500 285° West 450 518 40,000  Level Anchorage Center
Fri 09:02:24 PM 57.1000 -160.7833 285° West 450 518 40,000  Level Anchorage Center
Fri 09:03:24 PM 57.1167 -161.0167 278° West 450 518 40,000  Level Anchorage Center
Fri 09:04:00 PM 57.1333 -161.1500 283° West 450 518 40,000  Level Anchorage Center
Fri 09:05:00 PM 57.1667 -161.3833 285° West 450 518 40,000  Level Anchorage Center
Fri 09:05:25 PM 57.1833 -161.4667 290° West 460 529 40,000  Level Anchorage Center
Fri 09:06:25 PM 57.2000 -161.7000 278° West 460 529 40,000  Level Anchorage Center
Fri 09:07:26 PM 57.2333 -161.9333 285° West 460 529 40,000  Level Anchorage Center
Fri 09:08:26 PM 57.2667 -162.1833 284° West 480 552 40,000  Level Anchorage Center
Fri 09:09:01 PM 57.2833 -162.3333 282° West 470 541 40,000  Level Anchorage Center
Fri 09:10:00 PM 57.3000 -162.5667 278° West 480 552 40,000  Level Anchorage Center
Fri 09:11:01 PM 57.3333 -162.8167 284° West 490 564 40,000  Level Anchorage Center
Fri 09:11:27 PM 57.3500 -162.9167 287° West 490 564 40,000  Level Anchorage Center
Fri 09:13:01 PM 57.3833 -163.3167 279° West 480 552 40,000  Level Anchorage Center
Fri 09:14:01 PM 57.4167 -163.5667 284° West 490 564 40,000  Level Anchorage Center
Fri 09:15:01 PM 57.4333 -163.8167 277° West 490 564 40,000  Level Anchorage Center
Fri 09:16:01 PM 57.4667 -164.0667 284° West 480 552 40,000  Level Anchorage Center
Fri 09:16:28 PM 57.4833 -164.1667 287° West 490 564 40,000  Level Anchorage Center
Fri 09:17:29 PM 57.5000 -164.4167 277° West 490 564 40,000  Level Anchorage Center
Fri 09:18:01 PM 57.5167 -164.5667 282° West 490 564 40,000  Level Anchorage Center
Fri 09:19:01 PM 57.5333 -164.8167 277° West 490 564 40,000  Level Anchorage Center
Fri 09:20:01 PM 57.5500 -165.0167 279° West 490 564 40,000  Level Anchorage Center
Fri 09:21:01 PM 57.5833 -165.3333 281° West 490 564 40,000  Level Anchorage Center
Fri 09:22:02 PM 57.6000 -165.5667 278° West 480 552 40,000  Level Anchorage Center
Fri 09:23:01 PM 57.6167 -165.7833 278° West 490 564 40,000  Level Anchorage Center
Fri 09:24:02 PM 57.6500 -166.0333 284° West 490 564 40,000  Level Anchorage Center
Fri 09:25:02 PM 57.6667 -166.2833 277° West 480 552 40,000  Level Anchorage Center
Fri 09:26:01 PM 57.6833 -166.5500 277° West 490 564 40,000  Level Anchorage Center
Fri 09:27:01 PM 57.7000 -166.8000 277° West 490 564 40,000  Level Anchorage Center
Fri 09:28:02 PM 57.7333 -167.0500 284° West 490 564 40,000  Level Anchorage Center
Fri 09:29:02 PM 57.7500 -167.3167 277° West 490 564 40,000  Level Anchorage Center
Fri 09:30:02 PM 57.7667 -167.5667 277° West 500 575 40,000  Level Anchorage Center
Fri 09:31:02 PM 57.7833 -167.8333 277° West 490 564 40,000  Level Anchorage Center
Fri 09:32:02 PM 57.8000 -168.0833 277° West 490 564 40,000  Level Anchorage Center
Fri 09:33:02 PM 57.8167 -168.3500 277° West 490 564 40,000  Level Anchorage Center
Fri 09:34:02 PM 57.8333 -168.6000 277° West 490 564 40,000  Level Anchorage Center
Fri 09:35:02 PM 57.8500 -168.8667 277° West 500 575 40,000  Level Anchorage Center
Fri 09:36:03 PM 57.8667 -169.1167 277° West 500 575 40,000  Level Anchorage Center
Fri 09:37:02 PM 57.8667 -169.3833 270° West 490 564 40,000  Level Anchorage Center
Fri 09:38:02 PM 57.8833 -169.6333 277° West 500 575 40,000  Level Anchorage Center
Fri 09:39:02 PM 57.9000 -169.9000 277° West 490 564 40,000  Level Anchorage Center
Fri 09:40:03 PM 57.9167 -170.1667 277° West 500 575 40,000  Level Anchorage Center
Fri 09:41:02 PM 57.9333 -170.4167 277° West 500 575 40,000  Level Anchorage Center
Fri 09:42:03 PM 57.9333 -170.6833 270° West 490 564 40,000  Level Anchorage Center
Fri 09:43:03 PM 57.9333 -170.9500 270° West 500 575 40,000  Level Anchorage Center
Fri 09:44:02 PM 57.9167 -171.2000 263° West 500 575 40,000  Level Anchorage Center
Fri 09:45:03 PM 57.9000 -171.4667 263° West 500 575 40,000  Level Anchorage Center
Fri 09:46:03 PM 57.9000 -171.7333 270° West 500 575 40,000  Level Anchorage Center
Fri 09:47:03 PM 57.8667 -172.0000 257° West 510 587 40,000  Level Anchorage Center
Fri 09:48:03 PM 57.8667 -172.2667 270° West 500 575 40,000  Level Anchorage Center
Fri 09:49:03 PM 57.8500 -172.5167 263° West 500 575 40,000  Level Anchorage Center
Fri 09:50:03 PM 57.8333 -172.7667 263° West 480 552 40,000  Level Anchorage Center
Fri 09:51:03 PM 57.8000 -173.0333 257° West 490 564 40,000  Level Anchorage Center
Fri 09:52:03 PM 57.7833 -173.2833 263° West 490 564 40,000  Level Anchorage Center
Fri 09:53:03 PM 57.7667 -173.5333 263° West 490 564 40,000  Level Anchorage Center
Fri 09:54:03 PM 57.7500 -173.8000 263° West 500 575 40,000  Level Anchorage Center
Fri 09:55:03 PM 57.7333 -174.0500 263° West 500 575 40,000  Level Anchorage Center
Fri 09:56:03 PM 57.7167 -174.3167 263° West 490 564 40,000  Level Anchorage Center
Fri 09:57:03 PM 57.7000 -174.5667 263° West 500 575 40,000  Level Anchorage Center
Fri 09:58:03 PM 57.6833 -174.8167 263° West 500 575 40,000  Level Anchorage Center
Fri 09:59:03 PM 57.6667 -175.0833 263° West 500 575 40,000  Level Anchorage Center
Fri 10:00:03 PM 57.6500 -175.3333 263° West 490 564 40,000  Level Anchorage Center
Fri 10:01:03 PM 57.6167 -175.5833 256° West 490 564 40,000  Level Anchorage Center
Fri 10:02:03 PM 57.6000 -175.8333 263° West 490 564 40,000  Level Anchorage Center
Fri 10:03:04 PM 57.5833 -176.0833 263° West 490 564 40,000  Level Anchorage Center
Fri 10:06:26 PM 57.5333 -176.8000 252° West 474 545 40,000  Level Anchorage Center
Fri 10:12:00 PM 57.2961 -178.0513 251° West 474 545 40,000  Level Estimated
Fri 10:12:43 PM 57.2500 -178.3500 251° West 472 543 40,000  Level Anchorage Center
Fri 10:13:00 PM 57.2522 -178.2743 252° West  Level Estimated
Fri 10:14:00 PM 57.2099 -178.4982 251° West  Level FlightAware Approximate
Fri 10:15:00 PM 57.1673 -178.7216 251° West  Level FlightAware Approximate
Fri 10:16:00 PM 57.1243 -178.9445 251° West  Level FlightAware Approximate
Fri 10:17:00 PM 57.0809 -179.1669 250° West  Level FlightAware Approximate
Fri 10:18:00 PM 57.0371 -179.3888 250° West  Level FlightAware Approximate
Fri 10:19:00 PM 56.9640 -179.7384 249° West 472 543 40,000  Level Estimated
Fri 10:20:00 PM 56.9192 -179.9589 250° West  Level FlightAware Approximate
Fri 10:21:00 PM 56.8741 179.8211 250° West  Level FlightAware Approximate
Fri 10:22:00 PM 56.8286 179.6017 249° West  Level FlightAware Approximate
Fri 10:23:00 PM 56.7827 179.3828 249° West  Level FlightAware Approximate
Fri 10:24:00 PM 56.7365 179.1644 249° West  Level FlightAware Approximate
Fri 10:25:00 PM 56.6898 178.9465 249° West  Level FlightAware Approximate
Fri 10:26:00 PM 56.6428 178.7292 249° West  Level FlightAware Approximate
Fri 10:27:00 PM 56.5954 178.5125 248° West  Level FlightAware Approximate
Fri 10:28:00 PM 56.5476 178.2963 248° West  Level FlightAware Approximate
Fri 10:29:00 PM 56.4994 178.0806 248° West  Level FlightAware Approximate
Fri 10:30:00 PM 56.4509 177.8655 248° West  Level FlightAware Approximate
Fri 10:31:00 PM 56.4020 177.6510 248° West  Level FlightAware Approximate
Fri 10:32:00 PM 56.3527 177.4369 248° West  Level FlightAware Approximate
Fri 10:33:00 PM 56.3031 177.2235 247° West  Level FlightAware Approximate
Fri 10:33:26 PM 56.2500 177.0167 246° West 440 506 40,000  Level Anchorage Center
Fri 10:34:00 PM 56.2531 177.0106 247° West  Level FlightAware Approximate
Fri 10:35:00 PM 56.2027 176.7982 247° West  Level FlightAware Approximate
Fri 10:35:26 PM 56.1667 176.5667 252° West 480 552 40,000  Level Anchorage Center
Fri 10:36:00 PM 56.1520 176.5865 247° West  Level FlightAware Approximate
Fri 10:36:26 PM 56.1000 176.3500 241° Southwest 450 518 40,000  Level Anchorage Center
Fri 10:37:00 PM 56.1009 176.3752 247° West  Level FlightAware Approximate
Fri 10:37:26 PM 56.0667 176.1667 252° West 470 541 40,000  Level Anchorage Center
Fri 10:38:00 PM 56.0494 176.1646 246° West  Level FlightAware Approximate
Fri 10:38:26 PM 56.0000 175.9333 243° Southwest 470 541 40,000  Level Anchorage Center
Fri 10:39:26 PM 55.9500 175.7500 244° Southwest 460 529 40,000  Level Anchorage Center
Fri 10:40:26 PM 55.9000 175.5167 249° West 460 529 40,000  Level Anchorage Center
Fri 10:41:26 PM 55.8500 175.3333 244° Southwest 460 529 40,000  Level Anchorage Center
Fri 10:42:26 PM 55.7833 175.1167 241° Southwest 460 529 40,000  Level Anchorage Center
Fri 10:43:26 PM 55.7500 174.9333 252° West 460 529 40,000  Level Anchorage Center
Fri 10:44:26 PM 55.6833 174.7000 243° Southwest 470 541 40,000  Level Anchorage Center
Fri 10:45:26 PM 55.6333 174.4833 248° West 470 541 40,000  Level Anchorage Center
Fri 10:46:26 PM 55.5833 174.3000 244° Southwest 460 529 40,000  Level Anchorage Center
Fri 10:47:26 PM 55.5167 174.0833 242° Southwest 460 529 40,000  Level Anchorage Center
Fri 10:48:26 PM 55.4667 173.9000 244° Southwest 470 541 40,000  Level Anchorage Center
Fri 10:49:26 PM 55.4000 173.6667 243° Southwest 470 541 40,000  Level Anchorage Center
Fri 10:50:26 PM 55.3500 173.5000 242° Southwest 460 529 40,000  Level Anchorage Center
Fri 10:51:26 PM 55.3000 173.2667 249° West 470 541 40,000  Level Anchorage Center
Fri 10:52:27 PM 55.2333 173.0500 242° Southwest 460 529 40,000  Level Anchorage Center
Fri 10:53:27 PM 55.1833 172.8833 242° Southwest 460 529 40,000  Level Anchorage Center
Fri 10:54:27 PM 55.1167 172.6667 242° Southwest 450 518 40,000  Level Anchorage Center
Fri 10:55:27 PM 55.0667 172.4833 245° Southwest 460 529 40,000  Level Anchorage Center
Fri 10:56:27 PM 55.0000 172.2667 242° Southwest 470 541 40,000  Level Anchorage Center
Fri 10:57:27 PM 54.9500 172.1000 242° Southwest 460 529 40,000  Level Anchorage Center
Fri 10:58:27 PM 54.8833 171.8833 242° Southwest 470 541 40,000  Level Anchorage Center
Fri 10:59:27 PM 54.8167 171.7167 235° Southwest 460 529 40,000  Level Anchorage Center
Fri 11:00:27 PM 54.7333 171.5167 234° Southwest 480 552 40,000  Level Anchorage Center
Fri 11:01:27 PM 54.6500 171.3167 234° Southwest 480 552 40,000  Level Anchorage Center
Fri 11:02:27 PM 54.5833 171.1667 233° Southwest 470 541 40,000  Level Anchorage Center
Fri 11:03:28 PM 54.5000 170.9667 234° Southwest 470 541 40,000  Level Anchorage Center
Fri 11:04:27 PM 54.4333 170.8000 236° Southwest 480 552 40,000  Level Anchorage Center
Fri 11:05:28 PM 54.3500 170.6167 232° Southwest 470 541 40,000  Level Anchorage Center
Fri 11:06:27 PM 54.2833 170.4500 236° Southwest 470 541 40,000  Level Anchorage Center
Fri 11:07:27 PM 54.2000 170.2500 235° Southwest 460 529 40,000  Level Anchorage Center
Fri 11:08:28 PM 54.1167 170.0500 235° Southwest 480 552 40,000  Level Anchorage Center
Fri 11:09:27 PM 54.0500 169.9000 233° Southwest 470 541 40,000  Level Anchorage Center
Fri 11:10:28 PM 53.9500 169.7167 227° Southwest 470 541 40,000  Level Anchorage Center
Fri 11:11:28 PM 53.8833 169.5500 236° Southwest 470 541 40,000  Level Anchorage Center
Fri 11:12:28 PM 53.8000 169.3667 232° Southwest 480 552 40,000  Level Anchorage Center
Fri 11:13:28 PM 53.7333 169.2000 236° Southwest 480 552 40,000  Level Anchorage Center
Fri 11:14:28 PM 53.6500 169.0000 235° Southwest 480 552 40,000  Level Anchorage Center
Fri 11:15:28 PM 53.6000 168.8333 243° Southwest 480 552 40,000  Level Anchorage Center
Fri 11:16:28 PM 53.5333 168.6167 243° Southwest 480 552 40,000  Level Anchorage Center
Fri 11:18:35 PM 53.4167 168.2333 240° Southwest 473 544 40,000  Level Anchorage Center
Fri 11:25:00 PM 52.9884 167.0655 239° Southwest 473 544 40,000  Level Estimated
Fri 11:26:00 PM 52.9207 166.8856 240° Southwest  Level Estimated
Fri 11:27:00 PM 52.8547 166.7042 239° Southwest  Level FlightAware Approximate
Fri 11:28:00 PM 52.7884 166.5233 239° Southwest  Level FlightAware Approximate
Fri 11:29:00 PM 52.7218 166.3430 239° Southwest  Level FlightAware Approximate
Fri 11:30:00 PM 52.6550 166.1632 239° Southwest  Level FlightAware Approximate
Fri 11:31:00 PM 52.5879 165.9840 238° Southwest  Level FlightAware Approximate
Fri 11:32:00 PM 52.5205 165.8054 238° Southwest  Level FlightAware Approximate
Fri 11:32:40 PM 52.4500 165.6333 238° Southwest 469 540 40,000  Level Anchorage Center
Fri 11:33:00 PM 52.5879 165.9840 58° Northeast  Level FlightAware Approximate
Fri 11:34:00 PM 52.5205 165.8054 238° Southwest  Level FlightAware Approximate
Fri 11:35:00 PM 52.5879 165.9840 58° Northeast  Level FlightAware Approximate
Fri 11:36:00 PM 52.5205 165.8054 238° Southwest  Level FlightAware Approximate
Fri 11:37:00 PM 52.5879 165.9840 58° Northeast  Level FlightAware Approximate
Fri 11:38:00 PM 52.5485 165.8795 238° Southwest  Level FlightAware Approximate
Fri 11:39:00 PM 52.0027 164.5318 237° Southwest 469 540 40,000  Level Estimated
Fri 11:40:00 PM 51.9347 164.3561 238° Southwest  Level FlightAware Approximate
Fri 11:41:00 PM 51.8665 164.1810 238° Southwest  Level FlightAware Approximate
Fri 11:42:00 PM 51.7979 164.0064 238° Southwest  Level FlightAware Approximate
Fri 11:43:00 PM 51.7292 163.8323 238° Southwest  Level FlightAware Approximate
Fri 11:44:00 PM 51.6601 163.6587 237° Southwest  Level FlightAware Approximate
Fri 11:44:24 PM 51.6500 163.6500 236° Southwest 458 527 40,000  Level Anchorage Center
Fri 11:45:00 PM 51.5909 163.4857 237° Southwest  Level FlightAware Approximate
Fri 11:46:00 PM 51.6601 163.6587 57° Northeast  Level FlightAware Approximate
Fri 11:47:00 PM 51.5909 163.4857 237° Southwest  Level FlightAware Approximate
Fri 11:48:00 PM 51.6601 163.6587 57° Northeast  Level FlightAware Approximate
Fri 11:49:00 PM 51.5909 163.4857 237° Southwest  Level FlightAware Approximate
Fri 11:50:00 PM 51.2387 162.7101 236° Southwest 458 527 40,000  Level Estimated
Fri 11:51:00 PM 51.1644 162.5441 236° Southwest  Level Estimated
Fri 11:52:00 PM 51.0946 162.3734 237° Southwest  Level FlightAware Approximate
Fri 11:53:00 PM 51.0246 162.2033 237° Southwest  Level FlightAware Approximate
Fri 11:54:00 PM 50.9543 162.0337 237° Southwest  Level FlightAware Approximate
Fri 11:55:00 PM 50.8838 161.8646 237° Southwest  Level FlightAware Approximate
Fri 11:56:00 PM 50.9543 162.0337 56° Northeast  Level FlightAware Approximate
Fri 11:57:00 PM 50.8838 161.8646 237° Southwest  Level FlightAware Approximate
Fri 11:58:00 PM 50.9543 162.0337 56° Northeast  Level FlightAware Approximate
Fri 11:59:00 PM 50.8838 161.8646 237° Southwest  Level FlightAware Approximate
Fri 11:59:20 PM 50.5500 161.1333 235° Southwest 460 529 40,000  Level Anchorage Center
Sat 12:00:00 AM 50.9257 161.9659 235° Southwest  Level FlightAware Approximate
Sat 12:01:00 AM 50.8524 161.7999 235° Southwest  Level FlightAware Approximate
Sat 12:02:00 AM 50.7789 161.6344 235° Southwest  Level FlightAware Approximate
Sat 12:03:00 AM 50.7051 161.4695 235° Southwest  Level FlightAware Approximate
Sat 12:04:00 AM 50.6311 161.3050 235° Southwest  Level FlightAware Approximate
Sat 12:04:17 AM 50.2000 160.3833 234° Southwest 466 536 40,000  Level Anchorage Center
Sat 12:05:00 AM 50.1132 160.2282 234° Southwest 460 529 40,000  Level Estimated
Sat 12:06:00 AM 50.2026 160.3708 46° Northeast  Level FlightAware Approximate
Sat 12:07:00 AM 50.1133 160.2281 226° Southwest  Level FlightAware Approximate
Sat 12:08:00 AM 50.2026 160.3708 46° Northeast  Level FlightAware Approximate
Sat 12:09:00 AM 50.1133 160.2281 226° Southwest  Level FlightAware Approximate
Sat 12:10:00 AM 49.7533 159.4841 233° Southwest 466 536 40,000  Level Estimated
Sat 12:11:00 AM 49.6744 159.3286 234° Southwest  Level Estimated
Sat 12:12:00 AM 49.7959 159.3903 18° North  Level FlightAware Approximate
Sat 12:13:00 AM 49.6744 159.3286 198° South  Level FlightAware Approximate
Sat 12:14:00 AM 49.7959 159.3903 18° North  Level FlightAware Approximate
Sat 12:15:00 AM 49.6744 159.3286 198° South  Level FlightAware Approximate
Sat 12:16:00 AM 49.7959 159.3903 18° North  Level FlightAware Approximate
Sat 12:17:00 AM 49.7165 159.2352 233° Southwest  Level Estimated
Sat 12:18:00 AM 49.6384 159.0788 232° Southwest  Level FlightAware Approximate
Sat 12:19:00 AM 49.5601 158.9230 232° Southwest  Level FlightAware Approximate
Sat 12:20:00 AM 49.4815 158.7677 232° Southwest  Level FlightAware Approximate
Sat 12:21:00 AM 49.4027 158.6129 232° Southwest  Level FlightAware Approximate
Sat 12:22:00 AM 49.3238 158.4585 232° Southwest  Level FlightAware Approximate
Sat 12:23:00 AM 49.2446 158.3047 232° Southwest  Level FlightAware Approximate
Sat 12:24:00 AM 49.1652 158.1514 232° Southwest  Level FlightAware Approximate
Sat 12:25:00 AM 49.0857 157.9985 232° Southwest  Level FlightAware Approximate
Sat 12:26:00 AM 49.0059 157.8461 231° Southwest  Level FlightAware Approximate
Sat 12:27:00 AM 48.9259 157.6943 231° Southwest  Level FlightAware Approximate
Sat 12:28:00 AM 48.8457 157.5429 231° Southwest  Level FlightAware Approximate
Sat 12:29:00 AM 48.7653 157.3920 231° Southwest  Level FlightAware Approximate
Sat 12:30:00 AM 48.6848 157.2416 231° Southwest  Level FlightAware Approximate
Sat 12:31:00 AM 48.6040 157.0916 231° Southwest  Level FlightAware Approximate
Sat 12:32:00 AM 48.5230 156.9422 231° Southwest  Level FlightAware Approximate
Sat 12:33:00 AM 48.4419 156.7932 231° Southwest  Level FlightAware Approximate
Sat 12:34:00 AM 48.3605 156.6447 231° Southwest  Level FlightAware Approximate
Sat 12:35:00 AM 48.2790 156.4967 230° Southwest  Level FlightAware Approximate
Sat 12:36:00 AM 48.1973 156.3491 230° Southwest  Level FlightAware Approximate
Sat 12:37:00 AM 48.1153 156.2020 230° Southwest  Level FlightAware Approximate
Sat 12:38:00 AM 48.0332 156.0554 230° Southwest  Level FlightAware Approximate
Sat 12:39:00 AM 47.9510 155.9092 230° Southwest  Level FlightAware Approximate
Sat 12:40:00 AM 47.8685 155.7635 230° Southwest  Level FlightAware Approximate
Sat 12:41:00 AM 47.7858 155.6183 230° Southwest  Level FlightAware Approximate
Sat 12:42:00 AM 47.7030 155.4736 230° Southwest  Level FlightAware Approximate
Sat 12:43:00 AM 47.6200 155.3293 230° Southwest  Level FlightAware Approximate
Sat 12:44:00 AM 47.5368 155.1854 229° Southwest  Level FlightAware Approximate
Sat 12:45:00 AM 47.4534 155.0420 229° Southwest  Level FlightAware Approximate
Sat 12:46:00 AM 47.3698 154.8991 229° Southwest  Level FlightAware Approximate
Sat 12:47:00 AM 47.2861 154.7566 229° Southwest  Level FlightAware Approximate
Sat 12:48:00 AM 47.2022 154.6146 229° Southwest  Level FlightAware Approximate
Sat 12:49:00 AM 47.1181 154.4730 229° Southwest  Level FlightAware Approximate
Sat 12:50:00 AM 47.0338 154.3319 229° Southwest  Level FlightAware Approximate
Sat 12:51:00 AM 46.9494 154.1912 229° Southwest  Level FlightAware Approximate
Sat 12:52:00 AM 46.8648 154.0510 229° Southwest  Level FlightAware Approximate
Sat 12:53:00 AM 46.7800 153.9112 229° Southwest  Level FlightAware Approximate
Sat 12:54:00 AM 46.6951 153.7718 228° Southwest  Level FlightAware Approximate
Sat 12:55:00 AM 46.6100 153.6329 228° Southwest  Level FlightAware Approximate
Sat 12:56:00 AM 46.5247 153.4944 228° Southwest  Level FlightAware Approximate
Sat 12:57:00 AM 46.4392 153.3563 228° Southwest  Level FlightAware Approximate
Sat 12:58:00 AM 46.3536 153.2187 228° Southwest  Level FlightAware Approximate
Sat 12:59:00 AM 46.2678 153.0815 228° Southwest  Level FlightAware Approximate
Sat 01:00:00 AM 46.1787 152.9393 228° Southwest  Level FlightAware Approximate
Sat 01:01:00 AM 46.0928 152.8027 228° Southwest  Level FlightAware Approximate
Sat 01:02:00 AM 46.0068 152.6664 228° Southwest  Level FlightAware Approximate
Sat 01:03:00 AM 45.9206 152.5306 228° Southwest  Level FlightAware Approximate
Sat 01:04:00 AM 45.8343 152.3953 228° Southwest  Level FlightAware Approximate
Sat 01:05:00 AM 45.7478 152.2603 227° Southwest  Level FlightAware Approximate
Sat 01:06:00 AM 45.6611 152.1258 227° Southwest  Level FlightAware Approximate
Sat 01:07:00 AM 45.5743 151.9916 227° Southwest  Level FlightAware Approximate
Sat 01:08:00 AM 45.4873 151.8579 227° Southwest  Level FlightAware Approximate
Sat 01:09:00 AM 45.4002 151.7246 227° Southwest  Level FlightAware Approximate
Sat 01:10:00 AM 45.3129 151.5917 227° Southwest  Level FlightAware Approximate
Sat 01:11:00 AM 45.2255 151.4593 227° Southwest  Level FlightAware Approximate
Sat 01:12:00 AM 45.1379 151.3272 227° Southwest  Level FlightAware Approximate
Sat 01:13:00 AM 45.0501 151.1955 227° Southwest  Level FlightAware Approximate
Sat 01:14:00 AM 44.9622 151.0643 227° Southwest  Level FlightAware Approximate
Sat 01:15:00 AM 44.8742 150.9334 227° Southwest  Level FlightAware Approximate
Sat 01:16:00 AM 44.7860 150.8029 226° Southwest  Level FlightAware Approximate
Sat 01:17:00 AM 44.6977 150.6729 226° Southwest  Level FlightAware Approximate
Sat 01:18:00 AM 44.6092 150.5432 226° Southwest  Level FlightAware Approximate
Sat 01:19:00 AM 44.5206 150.4140 226° Southwest  Level FlightAware Approximate
Sat 01:20:00 AM 44.4318 150.2851 226° Southwest  Level FlightAware Approximate
Sat 01:21:00 AM 44.3429 150.1566 226° Southwest  Level FlightAware Approximate
Sat 01:22:00 AM 44.2538 150.0285 226° Southwest  Level FlightAware Approximate
Sat 01:23:00 AM 44.1646 149.9008 226° Southwest  Level FlightAware Approximate
Sat 01:24:00 AM 44.0752 149.7735 226° Southwest  Level FlightAware Approximate
Sat 01:25:00 AM 43.9857 149.6465 226° Southwest  Level FlightAware Approximate
Sat 01:26:00 AM 43.8961 149.5200 226° Southwest  Level FlightAware Approximate
Sat 01:27:00 AM 43.8063 149.3938 225° Southwest  Level FlightAware Approximate
Sat 01:28:00 AM 43.7164 149.2680 225° Southwest  Level FlightAware Approximate
Sat 01:29:00 AM 43.6264 149.1426 225° Southwest  Level FlightAware Approximate
Sat 01:30:00 AM 43.5362 149.0175 225° Southwest  Level FlightAware Approximate
Sat 01:31:00 AM 43.4459 148.8929 225° Southwest  Level FlightAware Approximate
Sat 01:32:00 AM 43.3554 148.7686 225° Southwest  Level FlightAware Approximate
Sat 01:33:00 AM 43.2648 148.6446 225° Southwest  Level FlightAware Approximate
Sat 01:34:00 AM 43.1741 148.5211 225° Southwest  Level FlightAware Approximate
Sat 01:35:00 AM 43.0833 148.3979 225° Southwest  Level FlightAware Approximate
Sat 01:36:00 AM 42.9923 148.2751 225° Southwest  Level FlightAware Approximate
Sat 01:37:00 AM 42.9011 148.1526 225° Southwest  Level FlightAware Approximate
Sat 01:38:00 AM 42.8099 148.0305 224° Southwest  Level FlightAware Approximate
Sat 01:39:00 AM 42.7185 147.9088 224° Southwest  Level FlightAware Approximate
Sat 01:40:00 AM 42.6270 147.7874 224° Southwest  Level FlightAware Approximate
Sat 01:41:00 AM 42.5354 147.6663 224° Southwest  Level FlightAware Approximate
Sat 01:42:00 AM 42.4436 147.5457 224° Southwest  Level FlightAware Approximate
Sat 01:43:00 AM 42.3521 147.4249 225° Southwest  Level FlightAware Approximate
Sat 01:44:00 AM 42.2610 147.3037 225° Southwest  Level FlightAware Approximate
Sat 01:45:00 AM 42.1698 147.1828 225° Southwest  Level FlightAware Approximate
Sat 01:46:00 AM 42.0784 147.0622 224° Southwest  Level FlightAware Approximate
Sat 01:47:00 AM 41.9869 146.9420 224° Southwest  Level FlightAware Approximate
Sat 01:48:00 AM 41.8952 146.8224 224° Southwest  Level FlightAware Approximate
Sat 01:49:00 AM 41.8028 146.7039 224° Southwest  Level FlightAware Approximate
Sat 01:50:00 AM 41.7102 146.5857 224° Southwest  Level FlightAware Approximate
Sat 01:51:00 AM 41.6176 146.4678 224° Southwest  Level FlightAware Approximate
Sat 01:52:00 AM 41.5248 146.3503 223° Southwest  Level FlightAware Approximate
Sat 01:52:12 AM 41.3800 146.1770 223° Southwest 405 466 40,000  Level FlightAware ADS-B
Sat 01:52:52 AM 41.3240 146.1070 223° Southwest 405 466 40,000  Level FlightAware ADS-B
Sat 01:53:32 AM 41.2670 146.0350 224° Southwest 405 466 40,000  Level FlightAware ADS-B
Sat 01:54:12 AM 41.2130 145.9690 223° Southwest 401 461 40,000  Level FlightAware ADS-B
Sat 01:54:57 AM 41.1520 145.8920 224° Southwest 403 464 40,000  Level FlightAware ADS-B
Sat 01:55:37 AM 41.0970 145.8250 223° Southwest 403 464 40,000  Level FlightAware ADS-B
Sat 01:56:22 AM 41.0370 145.7490 224° Southwest 403 464 40,000  Level FlightAware ADS-B
Sat 01:57:02 AM 40.9800 145.6800 222° Southwest 402 463 40,000  Level FlightAware ADS-B
Sat 01:57:42 AM 40.9290 145.6170 223° Southwest 402 463 40,000  Level FlightAware ADS-B
Sat 01:58:27 AM 40.8680 145.5420 223° Southwest 400 460 40,000  Level FlightAware ADS-B
Sat 01:59:07 AM 40.8100 145.4710 223° Southwest 400 460 40,000  Level FlightAware ADS-B
Sat 01:59:52 AM 40.7510 145.3980 223° Southwest 401 461 40,000  Level FlightAware ADS-B
Sat 02:00:32 AM 40.7010 145.3370 223° Southwest 401 461 40,000  Level FlightAware ADS-B
Sat 02:01:17 AM 40.6340 145.2560 223° Southwest 397 457 40,000  Level FlightAware ADS-B
Sat 02:01:47 AM 40.5950 145.2080 223° Southwest 397 457 40,000  Level FlightAware ADS-B
Sat 02:02:37 AM 40.5300 145.1300 222° Southwest 397 457 40,000  Level FlightAware ADS-B
Sat 02:03:17 AM 40.4690 145.0560 223° Southwest 398 458 40,000  Level FlightAware ADS-B
Sat 02:04:02 AM 40.4110 144.9850 223° Southwest 398 458 40,000  Level FlightAware ADS-B
Sat 02:04:47 AM 40.3470 144.9090 222° Southwest 400 460 40,000  Level FlightAware ADS-B
Sat 02:05:22 AM 40.3020 144.8550 222° Southwest 401 461 40,000  Level FlightAware ADS-B
Sat 02:06:07 AM 40.2470 144.7870 223° Southwest 401 461 40,000  Level FlightAware ADS-B
Sat 02:06:52 AM 40.2010 144.7310 223° Southwest 401 461 40,000  Level FlightAware ADS-B
Sat 02:07:32 AM 40.1540 144.6740 223° Southwest 401 461 40,000  Level FlightAware ADS-B
Sat 02:08:12 AM 40.1080 144.6180 223° Southwest 401 461 40,000  Level FlightAware ADS-B
Sat 02:08:57 AM 40.0510 144.5480 223° Southwest 401 461 40,000  Level FlightAware ADS-B
Sat 02:09:37 AM 40.0050 144.4920 223° Southwest 401 461 40,000  Level FlightAware ADS-B
Sat 02:10:22 AM 39.9580 144.4360 222° Southwest 401 461 40,000  Level FlightAware ADS-B
Sat 02:12:00 AM 39.8032 144.2534 222° Southwest  Level FlightAware Approximate
Sat 02:13:00 AM 39.7084 144.1420 222° Southwest  Level FlightAware Approximate
Sat 02:14:00 AM 39.6133 144.0309 222° Southwest  Level FlightAware Approximate
Sat 02:15:00 AM 39.5182 143.9201 222° Southwest  Level FlightAware Approximate
Sat 02:16:00 AM 39.4230 143.8096 222° Southwest  Level FlightAware Approximate
Sat 02:17:00 AM 39.3277 143.6995 222° Southwest  Level FlightAware Approximate
Sat 02:18:00 AM 39.2323 143.5896 222° Southwest  Level FlightAware Approximate
Sat 02:19:00 AM 39.1364 143.4806 221° Southwest  Level FlightAware Approximate
Sat 02:20:00 AM 39.0399 143.3726 221° Southwest  Level FlightAware Approximate
Sat 02:21:00 AM 38.9433 143.2649 221° Southwest  Level FlightAware Approximate
Sat 02:22:00 AM 38.8339 143.1851 200° South  Level FlightAware Approximate
Sat 02:23:00 AM 38.7141 143.1281 200° South  Level FlightAware Approximate
Sat 02:24:00 AM 38.5942 143.0713 200° South  Level FlightAware Approximate
Sat 02:25:00 AM 38.4743 143.0147 200° South  Level FlightAware Approximate
Sat 02:26:00 AM 38.3544 142.9582 200° South  Level FlightAware Approximate
Sat 02:27:00 AM 38.2344 142.9020 200° South  Level FlightAware Approximate
Sat 02:28:00 AM 38.1144 142.8459 200° South  Level FlightAware Approximate
Sat 02:29:00 AM 37.9944 142.7900 200° South  Level FlightAware Approximate
Sat 02:29:57 AM 37.9970 142.8160 200° South 423 487 40,000  Level FlightAware ADS-B
Sat 02:30:00 AM 37.8744 142.7343 200° South  Level FlightAware Approximate
Sat 02:30:52 AM 37.8950 142.7710 199° South 429 494 40,000  Level FlightAware ADS-B
Sat 02:31:32 AM 37.8190 142.7370 199° South 428 493 40,000  Level FlightAware ADS-B
Sat 02:32:17 AM 37.7340 142.7000 199° South 427 491 40,000  Level FlightAware ADS-B
Sat 02:32:52 AM 37.6690 142.6700 200° South 429 494 40,000  Level FlightAware ADS-B
Sat 02:33:32 AM 37.5960 142.6380 199° South 425 489 40,000  Level FlightAware ADS-B
Sat 02:34:12 AM 37.5190 142.6040 199° South 427 491 40,000  Level FlightAware ADS-B
Sat 02:34:57 AM 37.4340 142.5670 199° South 426 490 40,000  Level FlightAware ADS-B
Sat 02:35:37 AM 37.3570 142.5330 199° South 424 488 40,000  Level FlightAware ADS-B
Sat 02:36:22 AM 37.2720 142.4960 199° South 423 487 40,000  Level FlightAware ADS-B
Sat 02:37:02 AM 37.1960 142.4630 199° South 423 487 40,000  Level FlightAware ADS-B
Sat 02:37:57 AM 37.0940 142.4180 199° South 423 487 40,000  Level FlightAware ADS-B
Sat 02:38:42 AM 37.0060 142.3800 199° South 425 489 40,000  Level FlightAware ADS-B
Sat 02:39:27 AM 36.9220 142.3430 199° South 428 493 40,000  Level FlightAware ADS-B
Sat 02:40:07 AM 36.8450 142.3100 199° South 429 494 40,000  Level FlightAware ADS-B
Sat 02:40:52 AM 36.7600 142.2740 199° South 426 490 40,000 -353 Level FlightAware ADS-B
Sat 02:41:32 AM 36.6860 142.2420 199° South 423 487 39,500 -1,280 Descending FlightAware ADS-B
Sat 02:42:07 AM 36.6280 142.2160 200° South 410 472 38,400 -2,188 Descending FlightAware ADS-B
Sat 02:42:57 AM 36.5320 142.1750 199° South 426 490 36,400 -2,560 Descending FlightAware ADS-B
Sat 02:43:22 AM 36.4810 142.1540 198° South 425 489 35,200 -2,829 Descending FlightAware ADS-B
Sat 02:44:07 AM 36.3960 142.1170 199° South 429 494 33,100 -2,541 Descending FlightAware ADS-B
Sat 02:44:47 AM 36.3180 142.0830 199° South 441 507 31,600 -2,250 Descending FlightAware ADS-B
Sat 02:45:27 AM 36.2420 142.0520 198° South 425 489 30,100 -2,325 Descending FlightAware ADS-B
Sat 02:46:07 AM 36.1670 142.0200 199° South 426 490 28,500 -2,471 Descending FlightAware ADS-B
Sat 02:46:52 AM 36.0820 141.9840 199° South 413 475 26,600 -2,400 Descending FlightAware ADS-B
Sat 02:47:27 AM 36.0210 141.9580 199° South 410 472 25,300 -2,118 Descending FlightAware ADS-B
Sat 02:48:17 AM 35.9320 141.9210 199° South 391 450 23,600 -1,133 Descending FlightAware ADS-B
Sat 02:48:57 AM 35.8780 141.8980 199° South 391 450 23,600 -1,800 Level FlightAware ADS-B
Sat 02:49:37 AM 35.7920 141.8620 199° South 410 472 21,200 -2,118 Descending FlightAware ADS-B
Sat 02:50:22 AM 35.7200 141.8320 199° South 374 430 20,600 -424 Descending FlightAware ADS-B
Sat 02:51:02 AM 35.6640 141.8100 198° South 374 430 20,600 -1,760 Level FlightAware ADS-B
Sat 02:51:37 AM 35.6100 141.7690 212° Southwest 374 430 18,400 -2,329 Descending FlightAware ADS-B
Sat 02:52:27 AM 35.5780 141.6780 247° West 340 391 17,300 -1,292 Descending FlightAware ADS-B
Sat 02:52:42 AM 35.5770 141.6540 267° West 330 380 17,000 -327 Descending FlightAware ADS-B
Sat 02:53:22 AM 35.5740 141.5960 266° West 330 380 17,000 -1,380 Level FlightAware ADS-B
Sat 02:54:22 AM 35.5790 141.4680 273° West 328 377 14,700 -2,021 Descending FlightAware ADS-B
Sat 02:54:57 AM 35.6050 141.4090 298° West 333 383 13,800 -675 Descending FlightAware ADS-B
Sat 02:55:42 AM 35.6350 141.3420 299° West 333 383 13,800 -1,024 Level FlightAware ADS-B
Sat 02:57:47 AM 35.6220 141.1090 266° West 320 368 10,900 -1,200 Descending FlightAware ADS-B
Sat 02:58:27 AM 35.6140 141.0400 262° West 302 348 10,500 -450 Descending FlightAware ADS-B
Sat 02:59:07 AM 35.6060 140.9720 262° West 265 305 10,300 -160 Descending FlightAware ADS-B
Sat 02:59:42 AM 35.5930 140.9340 247° West 240 276 10,300 -686 Level FlightAware ADS-B
Sat 03:00:17 AM 35.5700 140.8840 241° Southwest 236 272 9,500 -1,200 Descending FlightAware ADS-B
Sat 03:00:47 AM 35.5560 140.8560 238° Southwest 238 274 9,000 -1,067 Descending FlightAware ADS-B
Sat 03:01:02 AM 35.5460 140.8350 240° Southwest 238 274 8,700 -686 Descending FlightAware ADS-B
Sat 03:01:22 AM 35.5360 140.8140 240° Southwest 228 262 8,600 -480 Descending FlightAware ADS-B
Sat 03:01:52 AM 35.5180 140.7800 237° Southwest 219 252 8,300 -720 Descending FlightAware ADS-B
Sat 03:02:12 AM 35.5070 140.7580 238° Southwest 219 252 8,000 -933 Descending FlightAware ADS-B
Sat 03:02:37 AM 35.4950 140.7340 238° Southwest 217 250 7,600 -655 Descending FlightAware ADS-B
Sat 03:03:07 AM 35.4790 140.7040 237° Southwest 200 230 7,400 -545 Descending FlightAware ADS-B
Sat 03:03:32 AM 35.4700 140.6790 246° West 190 219 7,100 -873 Descending FlightAware ADS-B
Sat 03:04:02 AM 35.4690 140.6440 268° West 188 216 6,600 -900 Descending FlightAware ADS-B
Sat 03:04:32 AM 35.4710 140.6150 275° West 184 212 6,200 -800 Descending FlightAware ADS-B
Sat 03:04:47 AM 35.4790 140.6030 309° West 171 197 6,000 -960 Descending FlightAware ADS-B
Sat 03:04:57 AM 35.4880 140.6000 345° North 179 206 5,800 -750 Descending FlightAware ADS-B
Sat 03:05:27 AM 35.5110 140.5900 341° North 168 193 5,500 -655 Descending FlightAware ADS-B
Sat 03:05:52 AM 35.5280 140.5780 330° Northwest 163 188 5,200 -764 Descending FlightAware ADS-B
Sat 03:06:22 AM 35.5470 140.5640 329° Northwest 151 174 4,800 -800 Descending FlightAware ADS-B
Sat 03:06:37 AM 35.5560 140.5580 332° Northwest 151 174 4,600 -857 Descending FlightAware ADS-B
Sat 03:06:57 AM 35.5670 140.5500 329° Northwest 153 176 4,300 -1,200 Descending FlightAware ADS-B
Sat 03:07:32 AM 35.5910 140.5330 330° Northwest 154 177 3,500 -800 Descending FlightAware ADS-B
Sat 03:08:12 AM 35.6150 140.5150 329° Northwest 147 169 3,300 -171 Descending FlightAware ADS-B
Sat 03:08:42 AM 35.6310 140.5040 331° Northwest 139 160 3,300 -67 Level FlightAware ADS-B
Sat 03:09:42 AM 35.6650 140.4790 329° Northwest 137 158 3,200 -382 Descending FlightAware ADS-B
Sat 03:10:32 AM 35.6930 140.4590 330° Northwest 132 152 2,600 -771 Descending FlightAware ADS-B
Sat 03:10:52 AM 35.7040 140.4510 329° Northwest 134 154 2,300 -695 Descending FlightAware ADS-B
Sat 03:12:07 AM 35.7420 140.4240 330° Northwest 113 130 1,500 -640 Descending FlightAware ADS-B
Sat 03:14:00 AM 35.7500 140.3833 253° West  Level FlightAware Approximate
Sat 03:15:00 AM 35.7647 140.3864 253° West  Level Estimated
Sat 03:16:00 AM 35.7647 140.3864 253° West  Level Estimated
Sat 03:17:00 AM 35.7647 140.3864 253° West  Level Estimated
Sat 03:18:00 AM 35.7647 140.3864 253° West  Level Estimated
Sat 03:19:00 AM 35.7647 140.3864 253° West  Level Estimated
Sat 03:20:00 AM 35.7647 140.3864 253° West  Level Estimated
Sat 03:21:00 AM 35.7647 140.3864 253° West  Level Estimated

Login

Don't have an account? Register now (free) for customized features, flight alerts, and more!